createdAt,value
2018-06-03T00:04:54.491Z,6.60
2018-06-03T00:09:55.546Z,7.03
2018-06-03T00:14:56.550Z,9.17
2018-06-03T00:19:57.554Z,12.40
2018-06-03T00:24:58.567Z,11.97
2018-06-03T00:29:59.568Z,9.73
2018-06-03T00:35:00.574Z,7.23
2018-06-03T00:40:01.585Z,10.13
2018-06-03T00:45:02.611Z,7.00
2018-06-03T00:50:03.610Z,7.13
2018-06-03T00:55:04.610Z,6.40
2018-06-03T01:00:05.602Z,5.87
2018-06-03T01:05:06.598Z,5.90
2018-06-03T01:10:08.349Z,5.87
2018-06-03T01:15:09.347Z,5.77
2018-06-03T01:20:10.351Z,9.90
2018-06-03T01:25:11.359Z,9.37
2018-06-03T01:30:13.106Z,10.80
2018-06-03T01:35:14.093Z,9.43
2018-06-03T01:40:15.830Z,8.33
2018-06-03T01:45:16.828Z,9.27
2018-06-03T01:50:18.562Z,7.17
2018-06-03T01:55:19.551Z,6.77
2018-06-03T02:00:21.281Z,6.53
2018-06-03T02:05:22.282Z,6.10
2018-06-03T02:10:24.010Z,8.67
2018-06-03T02:15:25.017Z,6.20
2018-06-03T02:20:26.762Z,7.70
2018-06-03T02:25:27.770Z,14.13
2018-06-03T02:30:30.746Z,7.63
2018-06-03T02:35:32.632Z,10.60
2018-06-03T02:40:34.386Z,7.90
2018-06-03T02:45:35.401Z,8.83
2018-06-03T02:50:36.413Z,6.63
2018-06-03T02:55:38.177Z,7.43
2018-06-03T03:00:39.938Z,6.80
2018-06-03T03:05:40.950Z,7.20
2018-06-03T03:10:41.968Z,7.03
2018-06-03T03:15:42.979Z,7.10
2018-06-03T03:20:44.002Z,8.40
2018-06-03T03:25:45.755Z,9.87
2018-06-03T03:30:46.766Z,6.53
2018-06-03T03:35:47.766Z,8.50
2018-06-03T03:40:48.774Z,7.60
2018-06-03T03:45:49.786Z,9.90
2018-06-03T03:50:50.789Z,11.20
2018-06-03T03:55:51.781Z,8.47
2018-06-03T04:00:52.782Z,10.10
2018-06-03T04:05:54.508Z,9.70
2018-06-03T04:10:55.531Z,8.80
2018-06-03T04:15:56.557Z,12.27
2018-06-03T04:20:57.552Z,7.50
2018-06-03T04:25:58.559Z,12.43
2018-06-03T04:30:59.562Z,9.40
2018-06-03T04:36:00.557Z,10.97
2018-06-03T04:41:01.571Z,7.73
2018-06-03T04:46:02.578Z,7.00
2018-06-03T04:51:36.126Z,7.23
2018-06-03T04:56:38.518Z,8.23
2018-06-03T05:01:41.444Z,11.20
2018-06-03T05:06:43.646Z,8.10
2018-06-03T05:11:45.881Z,7.10
2018-06-03T05:16:48.074Z,11.10
2018-06-03T05:21:50.186Z,8.07
2018-06-03T05:26:52.365Z,7.10
2018-06-03T05:31:54.535Z,12.57
2018-06-03T05:36:56.704Z,11.03
2018-06-03T05:41:58.870Z,11.20
2018-06-03T05:47:01.058Z,11.20
2018-06-03T05:52:03.293Z,14.63
2018-06-03T05:57:05.599Z,11.23
2018-06-03T06:02:07.778Z,14.07
2018-06-03T06:07:09.971Z,10.40
2018-06-03T06:12:12.105Z,9.03
2018-06-03T06:17:14.331Z,6.57
2018-06-03T06:22:16.502Z,7.63
2018-06-03T06:27:18.661Z,4.50
2018-06-03T06:32:20.814Z,8.03
2018-06-03T06:37:22.973Z,5.10
2018-06-03T06:42:25.258Z,5.00
2018-06-03T06:47:27.419Z,9.10
2018-06-03T06:52:29.677Z,5.00
2018-06-03T06:57:31.851Z,6.90
2018-06-03T07:02:33.998Z,6.70
2018-06-03T07:07:36.150Z,5.60
2018-06-03T07:12:38.318Z,6.27
2018-06-03T07:17:40.541Z,6.87
2018-06-03T07:22:42.701Z,7.57
2018-06-03T07:27:44.858Z,7.50
2018-06-03T07:32:47.035Z,6.30
2018-06-03T07:37:49.197Z,6.33
2018-06-03T07:42:51.385Z,7.20
2018-06-03T07:47:53.579Z,6.80
2018-06-03T07:52:55.766Z,7.03
2018-06-03T07:57:57.991Z,6.30
2018-06-03T08:03:00.195Z,8.23
2018-06-03T08:08:02.410Z,6.37
2018-06-03T08:13:04.586Z,8.20
2018-06-03T08:18:06.771Z,6.80
2018-06-03T08:23:08.974Z,6.03
2018-06-03T08:28:11.134Z,6.50
2018-06-03T08:33:13.258Z,5.77
2018-06-03T08:38:15.407Z,6.63
2018-06-03T08:43:17.560Z,5.97
2018-06-03T08:48:19.697Z,6.10
2018-06-03T08:53:21.825Z,9.60
2018-06-03T08:58:23.976Z,6.00
2018-06-03T09:03:26.114Z,8.73
2018-06-03T09:08:28.257Z,12.77
2018-06-03T09:13:30.394Z,7.00
2018-06-03T09:18:32.534Z,6.37
2018-06-03T09:23:34.698Z,4.90
2018-06-03T09:28:36.914Z,4.77
2018-06-03T09:33:39.073Z,6.83
2018-06-03T09:38:41.636Z,6.30
2018-06-03T09:43:43.823Z,4.30
2018-06-03T09:48:45.969Z,4.70
2018-06-03T09:53:48.144Z,4.10
2018-06-03T09:58:50.286Z,4.90
2018-06-03T10:03:52.510Z,3.93
2018-06-03T10:08:54.670Z,6.63
2018-06-03T10:13:56.826Z,4.23
2018-06-03T10:18:58.957Z,4.20
2018-06-03T10:24:01.114Z,9.30
2018-06-03T10:29:03.278Z,4.10
2018-06-03T10:34:05.411Z,4.60
2018-06-03T10:39:07.565Z,5.87
2018-06-03T10:44:09.706Z,4.50
2018-06-03T10:49:11.875Z,4.73
2018-06-03T10:54:14.040Z,5.60
2018-06-03T10:59:16.170Z,4.10
2018-06-03T11:04:18.319Z,4.63
2018-06-03T11:09:20.481Z,5.10
2018-06-03T11:14:22.619Z,4.20
2018-06-03T11:19:24.782Z,4.07
2018-06-03T11:24:26.926Z,4.40
2018-06-03T11:29:29.122Z,4.33
2018-06-03T11:34:31.313Z,4.00
2018-06-03T11:39:33.467Z,4.67
2018-06-03T11:44:35.627Z,3.80
2018-06-03T11:49:37.794Z,4.00
2018-06-03T11:54:39.958Z,3.80
2018-06-03T11:59:43.694Z,3.87
2018-06-03T12:04:45.855Z,4.53
2018-06-03T12:09:48.071Z,3.97
2018-06-03T12:14:50.223Z,6.73
2018-06-03T12:19:52.399Z,5.30
2018-06-03T12:24:54.572Z,3.90
2018-06-03T12:29:56.722Z,3.87
2018-06-03T12:34:58.873Z,3.70
2018-06-03T12:40:01.079Z,5.17
2018-06-03T12:45:03.289Z,4.00
2018-06-03T12:50:05.478Z,4.20
2018-06-03T12:55:07.665Z,3.60
2018-06-03T13:00:09.861Z,4.00
2018-06-03T13:05:12.026Z,3.90
2018-06-03T13:10:14.230Z,3.73
2018-06-03T13:15:16.412Z,3.30
2018-06-03T13:20:18.605Z,8.63
2018-06-03T13:25:20.790Z,3.30
2018-06-03T13:30:23.106Z,3.50
2018-06-03T13:35:25.286Z,3.20
2018-06-03T13:40:27.447Z,5.53
2018-06-03T13:45:29.615Z,3.50
2018-06-03T13:50:31.780Z,3.17
2018-06-03T13:55:33.958Z,3.50
2018-06-03T14:00:36.118Z,2.93
2018-06-03T14:05:38.297Z,3.67
2018-06-03T14:10:40.475Z,3.20
2018-06-03T14:15:42.629Z,3.27
2018-06-03T14:20:44.839Z,3.10
2018-06-03T14:25:46.994Z,6.60
2018-06-03T14:30:49.135Z,3.97
2018-06-03T14:35:51.269Z,2.67
2018-06-03T14:40:53.447Z,4.30
2018-06-03T14:45:55.599Z,2.87
2018-06-03T14:50:57.738Z,5.13
2018-06-03T14:55:59.867Z,3.50
2018-06-03T15:01:01.973Z,2.83
2018-06-03T15:06:04.149Z,3.43
2018-06-03T15:11:06.289Z,3.03
2018-06-03T15:16:08.419Z,3.63
2018-06-03T15:21:10.567Z,3.27
2018-06-03T15:26:12.749Z,2.90
2018-06-03T15:31:14.899Z,4.00
2018-06-03T15:36:17.082Z,7.83
2018-06-03T15:41:19.242Z,3.40
2018-06-03T15:46:21.378Z,5.23
2018-06-03T15:51:23.570Z,3.50
2018-06-03T15:56:25.722Z,4.17
2018-06-03T16:01:27.879Z,4.60
2018-06-03T16:06:30.062Z,3.60
2018-06-03T16:11:32.218Z,5.20
2018-06-03T16:16:34.458Z,3.00
2018-06-03T16:21:36.620Z,3.57
2018-06-03T16:26:38.761Z,3.90
2018-06-03T16:31:40.955Z,5.30
2018-06-03T16:36:43.104Z,4.37
2018-06-03T16:41:45.279Z,3.50
2018-06-03T16:46:47.476Z,4.80
2018-06-03T16:51:49.646Z,4.70
2018-06-03T16:56:51.850Z,5.10
2018-06-03T17:01:54.003Z,4.53
2018-06-03T17:06:56.191Z,4.20
2018-06-03T17:11:58.352Z,7.87
2018-06-03T17:17:00.514Z,4.83
2018-06-03T17:22:02.680Z,3.60
2018-06-03T17:27:04.871Z,4.93
2018-06-03T17:32:07.011Z,4.90
2018-06-03T17:37:09.125Z,3.50
2018-06-03T17:42:11.262Z,3.57
2018-06-03T17:47:13.773Z,4.03
2018-06-03T17:52:16.041Z,2.90
2018-06-03T17:57:18.339Z,5.47
2018-06-03T18:02:20.730Z,2.70
2018-06-03T18:07:22.870Z,3.03
2018-06-03T18:12:25.018Z,3.40
2018-06-03T18:17:27.173Z,3.10
2018-06-03T18:22:29.349Z,2.83
2018-06-03T18:27:31.450Z,3.33
2018-06-03T18:32:33.620Z,2.80
2018-06-03T18:37:35.779Z,4.20
2018-06-03T18:42:37.950Z,3.13
2018-06-03T18:47:40.126Z,3.10
2018-06-03T18:52:42.315Z,2.90
2018-06-03T18:57:44.536Z,4.30
2018-06-03T19:02:46.689Z,4.17
2018-06-03T19:07:48.842Z,2.83
2018-06-03T19:12:50.985Z,3.00
2018-06-03T19:17:53.145Z,3.83
2018-06-03T19:22:55.298Z,4.90
2018-06-03T19:27:57.454Z,3.10
2018-06-03T19:32:59.586Z,3.00
2018-06-03T19:38:01.719Z,3.07
2018-06-03T19:43:04.006Z,3.13
2018-06-03T19:48:06.150Z,3.10
2018-06-03T19:53:08.277Z,2.97
2018-06-03T19:58:10.496Z,3.80
2018-06-03T20:03:12.722Z,3.30
2018-06-03T20:08:15.892Z,4.40
2018-06-03T20:13:18.017Z,3.50
2018-06-03T20:18:20.151Z,4.67
2018-06-03T20:23:22.318Z,6.27
2018-06-03T20:28:24.497Z,5.57
2018-06-03T20:33:26.673Z,4.83
2018-06-03T20:38:28.844Z,5.13
2018-06-03T20:43:31.011Z,4.97
2018-06-03T20:48:33.174Z,3.70
2018-06-03T20:53:35.341Z,5.20
2018-06-03T20:58:37.550Z,6.10
2018-06-03T21:03:39.698Z,4.47
2018-06-03T21:08:41.899Z,3.50
2018-06-03T21:13:44.054Z,3.73
2018-06-03T21:18:46.246Z,3.93
2018-06-03T21:23:48.405Z,6.23
2018-06-03T21:28:50.577Z,3.20
2018-06-03T21:33:52.754Z,5.40
2018-06-03T21:38:54.906Z,4.37
2018-06-03T21:43:57.073Z,3.63
2018-06-03T21:48:59.238Z,3.73
2018-06-03T21:54:01.402Z,5.47
2018-06-03T21:59:03.570Z,3.27
2018-06-03T22:04:05.729Z,3.57
2018-06-03T22:09:07.903Z,6.97
2018-06-03T22:14:10.058Z,5.70
2018-06-03T22:19:12.234Z,4.70
2018-06-03T22:24:14.388Z,6.10
2018-06-03T22:29:16.517Z,5.30
2018-06-03T22:34:18.668Z,6.20
2018-06-03T22:39:20.835Z,5.80
2018-06-03T22:44:22.961Z,8.80
2018-06-03T22:49:25.101Z,4.80
2018-06-03T22:54:27.238Z,5.00
2018-06-03T22:59:29.362Z,8.87
2018-06-03T23:04:31.507Z,6.40
2018-06-03T23:09:33.657Z,6.97
2018-06-03T23:14:35.805Z,6.90
2018-06-03T23:19:37.934Z,9.30
2018-06-03T23:24:40.243Z,7.27
2018-06-03T23:29:42.328Z,7.87
2018-06-03T23:34:44.485Z,6.50
2018-06-03T23:39:46.639Z,8.10
2018-06-03T23:44:48.799Z,8.13
2018-06-03T23:49:50.962Z,7.80
2018-06-03T23:54:53.139Z,8.90
2018-06-03T23:59:55.316Z,7.53
